Terminal Aerodrome Forecast
Issued by NWS

Home | Current Version | Previous Version | Text Only | Print | Product List | Glossary On
Versions: 1 2 3 4 5 6 7 8 9 10 11 12 13 14 15 16 17 18 19 20 21 22 23
000
FTAK31 PAJN 282222 AAB
TAFAJN
TAF AMD
PAJN 282222Z 2822/2918 08012KT P6SM SCT120
     FM290300 10008KT P6SM BKN070 OVC100
     FM290600 10005KT P6SM BKN100 WS020/06025KT
     FM291200 08003KT P6SM BKN100=

USA.gov is the U.S. government's official web portal to all federal, state and local government web resources and services.